Time;durP1;ratioP1;P1;durP2;ratioP2;P2;SDS_P1;SDS_P2;PMS_P1;PMS_P2;Temp;Humidity;BMP_temperature;BMP_pressure;BME280_temperature;BME280_humidity;BME280_pressure;Samples;Min_cycle;Max_cycle;Signal;HPM_P1;HPM_P2
2023/07/04 00:00:04;;;;;;;;;;;;;;;24.28;86.14;99374.31;340986;29;1234;-77
2023/07/04 00:00:16;;;;;;;;;;;;;;;24.29;86.11;99375.97;338462;29;1472;-77
2023/07/04 00:00:26;;;;;;;;;;;;;;;24.29;86.11;99375.97;336798;29;1829;-77
2023/07/04 00:00:37;;;;;;;;;;;;;;;24.31;86.13;99374.00;336750;29;2062;-77
2023/07/04 00:00:57;;;;;;;;;;;;;;;24.32;86.33;99375.69;335646;29;1213;-77
2023/07/04 00:01:11;;;;;;;;;;;;;;;24.32;86.58;99378.34;335538;29;2119;-77
2023/07/04 00:01:22;;;;;;;;;;;;;;;24.32;86.25;99375.69;336620;29;1494;-77
2023/07/04 00:01:33;;;;;;;;;;;;;;;24.31;86.22;99380.19;335467;29;1375;-77
2023/07/04 00:01:46;;;;;;;;;;;;;;;24.31;86.35;99379.34;332921;29;1332;-77
2023/07/04 00:01:56;;;;;;;;;;;;;;;24.31;86.27;99379.34;329805;29;1962;-77
2023/07/04 00:02:07;;;;;;;;;;;;;;;24.31;86.33;99374.84;327344;29;2028;-77
2023/07/04 00:02:17;;;;;;;;;;;;;;;24.31;86.03;99380.19;329336;30;1317;-77
2023/07/04 00:02:27;;;;;;;;;;;;;;;24.31;86.21;99380.19;334428;29;2178;-77
2023/07/04 00:02:37;;;;;;;;;;;;;;;24.32;86.21;99375.69;333215;29;2247;-77
2023/07/04 00:02:49;;;;;;;;;;;;;;;24.29;86.48;99376.81;332124;29;1364;-77
2023/07/04 00:02:59;;;;;;;;;;;;;;;24.30;86.48;99377.66;326984;30;934;-77
2023/07/04 00:03:09;;;;;;;;;;;;;;;24.30;86.38;99375.00;325251;30;2783;-77
2023/07/04 00:03:20;;;;;;;;;;;;;;;24.30;86.45;99372.31;324378;30;1772;-78
2023/07/04 00:03:30;;;;;;;;;;;;;;;24.30;86.43;99373.16;324422;30;1316;-78
2023/07/04 00:03:41;;;;;;;;;;;;;;;24.29;86.44;99376.81;325996;30;1132;-77
2023/07/04 00:03:53;;;;;;;;;;;;;;;24.30;86.43;99375.00;325022;30;2022;-77
2023/07/04 00:04:07;;;;;;;;;;;;;;;24.30;86.33;99372.31;324007;30;2628;-77
2023/07/04 00:04:18;;;;;;;;;;;;;;;24.30;86.73;99372.31;322243;30;852;-77
2023/07/04 00:04:29;;;;;;;;;;;;;;;24.30;86.23;99370.47;320891;30;1409;-77
2023/07/04 00:04:41;;;;;;;;;;;;;;;24.31;86.42;99372.16;321288;30;2653;-76
2023/07/04 00:04:51;;;;;;;;;;;;;;;24.31;86.17;99372.16;319686;30;3024;-76
2023/07/04 00:05:02;;;;;;;;;;;;;;;24.31;86.53;99371.31;315194;31;1195;-77
2023/07/04 00:05:12;;;;;;;;;;;;;;;24.31;86.60;99376.66;311272;31;3437;-76
2023/07/04 00:05:23;;;;;;;;;;;;;;;24.31;86.55;99368.66;311168;31;3168;-76
2023/07/04 00:05:33;;;;;;;;;;;;;;;24.30;86.59;99377.66;311323;31;2093;-76
2023/07/04 00:05:54;;;;;;;;;;;;;;;24.29;86.66;99374.16;316256;31;1330;-76
2023/07/04 00:06:05;;;;;;;;;;;;;;;24.29;86.60;99371.47;311783;31;2886;-76
2023/07/04 00:06:17;;;;;;;;;;;;;;;24.29;86.84;99370.63;314073;31;845;-76
2023/07/04 00:06:29;;;;;;;;;;;;;;;24.30;86.84;99375.00;311890;31;3368;-76
2023/07/04 00:06:39;;;;;;;;;;;;;;;24.31;86.93;99374.00;312315;31;4463;-76
2023/07/04 00:06:50;;;;;;;;;;;;;;;24.30;86.86;99375.00;312118;31;4595;-76
2023/07/04 00:07:03;;;;;;;;;;;;;;;24.30;86.75;99375.00;311855;31;1261;-76
2023/07/04 00:07:13;;;;;;;;;;;;;;;24.29;87.00;99378.66;311636;31;4480;-76
2023/07/04 00:07:23;;;;;;;;;;;;;;;24.29;86.77;99375.97;312631;31;4304;-76
2023/07/04 00:07:34;;;;;;;;;;;;;;;24.28;86.84;99379.66;309858;31;4438;-76
2023/07/04 00:07:44;;;;;;;;;;;;;;;24.28;86.83;99374.31;306289;32;1345;-76
2023/07/04 00:07:54;;;;;;;;;;;;;;;24.28;87.11;99379.66;307709;31;2834;-76
2023/07/04 00:08:05;;;;;;;;;;;;;;;24.29;86.82;99379.50;308202;32;2957;-76
2023/07/04 00:08:15;;;;;;;;;;;;;;;24.29;86.65;99375.97;306609;32;820;-77
2023/07/04 00:08:26;;;;;;;;;;;;;;;24.30;86.75;99377.66;306403;32;4837;-77
2023/07/04 00:08:36;;;;;;;;;;;;;;;24.29;86.78;99375.97;305198;32;5525;-77
2023/07/04 00:08:48;;;;;;;;;;;;;;;24.29;87.04;99373.31;303064;32;1986;-77
2023/07/04 00:08:59;;;;;;;;;;;;;;;24.30;86.99;99383.00;297923;33;1582;-77
2023/07/04 00:09:10;;;;;;;;;;;;;;;24.28;87.22;99374.31;296683;33;6628;-77
2023/07/04 00:09:20;;;;;;;;;;;;;;;24.28;87.21;99374.31;294647;32;6230;-77
2023/07/04 00:09:30;;;;;;;;;;;;;;;24.27;87.26;99378.81;296867;33;1224;-76
2023/07/04 00:09:40;;;;;;;;;;;;;;;24.26;87.29;99384.34;298067;32;5677;-77
2023/07/04 00:09:51;;;;;;;;;;;;;;;24.26;87.17;99370.97;297067;33;5583;-77
2023/07/04 00:10:03;;;;;;;;;;;;;;;24.26;86.99;99376.31;297025;33;1291;-77
2023/07/04 00:10:14;;;;;;;;;;;;;;;24.24;87.43;99378.28;294159;33;851;-78
2023/07/04 00:10:24;;;;;;;;;;;;;;;24.25;87.41;99377.28;291992;33;5247;-77
2023/07/04 00:10:36;;;;;;;;;;;;;;;24.23;87.62;99373.94;290860;33;6309;-76
2023/07/04 00:10:47;;;;;;;;;;;;;;;24.21;87.60;99380.28;292405;33;858;-76
2023/07/04 00:10:57;;;;;;;;;;;;;;;24.20;87.75;99367.91;287171;33;8400;-76
2023/07/04 00:11:07;;;;;;;;;;;;;;;24.19;87.75;99371.56;287593;33;7476;-76
2023/07/04 00:11:19;;;;;;;;;;;;;;;24.17;87.85;99372.72;289083;34;1325;-76
2023/07/04 00:11:30;;;;;;;;;;;;;;;24.14;88.02;99373.88;285524;34;887;-77
2023/07/04 00:11:41;;;;;;;;;;;;;;;24.13;88.17;99372.19;281042;34;9170;-77
2023/07/04 00:14:10;;;;;;;;;;;;;;;24.13;88.45;99366.84;2500933;27;19937;-76
2023/07/04 00:14:20;;;;;;;;;;;;;;;24.13;88.09;99372.19;352978;28;1211;-76
2023/07/04 00:14:30;;;;;;;;;;;;;;;24.14;88.23;99368.50;350335;28;1196;-77
2023/07/04 00:14:41;;;;;;;;;;;;;;;24.14;88.26;99365.00;349038;28;847;-76
2023/07/04 00:14:52;;;;;;;;;;;;;;;24.15;88.45;99375.53;347638;28;1246;-76
2023/07/04 00:15:02;;;;;;;;;;;;;;;24.15;88.21;99375.53;348874;28;1529;-77
2023/07/04 00:15:13;;;;;;;;;;;;;;;24.12;88.47;99375.84;348926;28;1199;-77
2023/07/04 00:15:24;;;;;;;;;;;;;;;24.09;88.83;99373.50;350197;28;1219;-77
2023/07/04 00:15:34;;;;;;;;;;;;;;;24.06;89.13;99371.13;350142;28;1362;-77
2023/07/04 00:15:45;;;;;;;;;;;;;;;24.05;88.79;99369.44;348652;28;1405;-76
2023/07/04 00:15:55;;;;;;;;;;;;;;;24.06;88.90;99371.13;347766;28;1337;-76
2023/07/04 00:16:06;;;;;;;;;;;;;;;24.05;88.83;99369.44;348497;28;1340;-76
2023/07/04 00:16:17;;;;;;;;;;;;;;;24.06;88.91;99371.13;350147;28;1449;-76
2023/07/04 00:16:27;;;;;;;;;;;;;;;24.06;88.76;99368.44;348832;28;1339;-76
2023/07/04 00:16:37;;;;;;;;;;;;;;;24.07;88.52;99372.81;348859;28;1219;-76
2023/07/04 00:16:48;;;;;;;;;;;;;;;24.07;88.63;99372.81;347632;28;832;-76
2023/07/04 00:16:58;;;;;;;;;;;;;;;24.08;88.54;99365.63;346222;28;705;-77
2023/07/04 00:17:08;;;;;;;;;;;;;;;24.08;88.52;99374.47;347605;28;1373;-76
2023/07/04 00:17:18;;;;;;;;;;;;;;;24.08;88.48;99370.97;347677;28;780;-77
2023/07/04 00:17:29;;;;;;;;;;;;;;;24.08;88.83;99369.13;344683;28;1442;-77
2023/07/04 00:17:39;;;;;;;;;;;;;;;24.09;88.64;99373.50;347421;28;906;-77
2023/07/04 00:17:50;;;;;;;;;;;;;;;24.09;88.83;99369.97;346520;28;1204;-77
2023/07/04 00:18:00;;;;;;;;;;;;;;;24.09;88.53;99370.81;345400;28;1228;-77
2023/07/04 00:18:10;;;;;;;;;;;;;;;24.08;88.81;99369.13;348906;28;1231;-76
2023/07/04 00:18:21;;;;;;;;;;;;;;;24.08;88.87;99369.13;349755;28;852;-76
2023/07/04 00:18:31;;;;;;;;;;;;;;;24.09;88.91;99372.66;351675;28;1198;-76
2023/07/04 00:18:41;;;;;;;;;;;;;;;24.10;88.71;99374.31;349511;28;796;-76
2023/07/04 00:18:51;;;;;;;;;;;;;;;24.10;88.76;99372.50;347543;28;971;-77
2023/07/04 00:19:03;;;;;;;;;;;;;;;24.09;88.72;99376.16;347518;28;1091;-77
2023/07/04 00:19:14;;;;;;;;;;;;;;;24.10;88.94;99372.50;346150;28;1307;-76
2023/07/04 00:19:24;;;;;;;;;;;;;;;24.10;88.68;99367.16;347495;28;1248;-77
2023/07/04 00:19:35;;;;;;;;;;;;;;;24.11;88.57;99373.34;347018;28;1245;-78
2023/07/04 00:19:48;;;;;;;;;;;;;;;24.10;88.64;99372.50;346098;28;1180;-77
2023/07/04 00:19:58;;;;;;;;;;;;;;;24.12;88.75;99375.00;348830;28;1226;-77
2023/07/04 00:20:09;;;;;;;;;;;;;;;24.11;88.74;99374.16;345947;28;1317;-78
2023/07/04 00:20:20;;;;;;;;;;;;;;;24.12;88.68;99369.66;345562;28;1247;-77
2023/07/04 00:20:33;;;;;;;;;;;;;;;24.11;88.67;99373.34;345797;28;1278;-77
2023/07/04 00:20:44;;;;;;;;;;;;;;;24.10;88.78;99375.16;346223;28;1238;-78
2023/07/04 00:20:55;;;;;;;;;;;;;;;24.10;88.78;99375.16;346239;28;1352;-77
2023/07/04 00:21:07;;;;;;;;;;;;;;;24.10;89.06;99377.00;345721;28;1104;-77
2023/07/04 00:21:18;;;;;;;;;;;;;;;24.09;88.89;99370.81;346578;28;1228;-77
2023/07/04 00:21:28;;;;;;;;;;;;;;;24.08;89.05;99376.31;343343;28;863;-77
2023/07/04 00:21:41;;;;;;;;;;;;;;;24.07;89.27;99371.97;344732;28;1185;-77
2023/07/04 00:21:51;;;;;;;;;;;;;;;24.06;89.03;99375.63;345844;28;1255;-77
2023/07/04 00:22:04;;;;;;;;;;;;;;;24.03;89.69;99373.25;344908;28;1352;-77
2023/07/04 00:22:15;;;;;;;;;;;;;;;23.96;89.70;99373.03;344665;28;1573;-77
2023/07/04 00:22:25;;;;;;;;;;;;;;;23.91;90.04;99378.00;343389;28;1417;-77
2023/07/04 00:22:40;;;;;;;;;;;;;;;23.86;90.06;99380.28;342788;28;1262;-77
2023/07/04 00:22:50;;;;;;;;;;;;;;;23.68;91.04;99376.78;343079;28;1602;-78
2023/07/04 00:23:00;;;;;;;;;;;;;;;23.55;91.65;99372.66;342920;28;1914;-78
2023/07/04 00:23:11;;;;;;;;;;;;;;;23.46;92.29;99367.34;342151;28;1326;-77
2023/07/04 00:23:21;;;;;;;;;;;;;;;23.35;93.25;99368.41;344162;28;1227;-77
2023/07/04 00:23:35;;;;;;;;;;;;;;;23.29;93.64;99374.34;345453;28;1184;-78
2023/07/04 00:23:46;;;;;;;;;;;;;;;23.24;94.10;99373.97;344379;28;1243;-77
2023/07/04 00:23:56;;;;;;;;;;;;;;;23.19;94.93;99376.22;341458;28;1423;-77
2023/07/04 00:24:06;;;;;;;;;;;;;;;23.13;95.21;99372.31;341817;28;1314;-77
2023/07/04 00:24:17;;;;;;;;;;;;;;;23.13;95.55;99371.47;336744;29;1748;-77
2023/07/04 00:24:27;;;;;;;;;;;;;;;23.15;95.38;99373.00;334250;29;1221;-77
2023/07/04 00:24:37;;;;;;;;;;;;;;;23.21;95.18;99374.25;342202;28;1984;-77
2023/07/04 00:24:48;;;;;;;;;;;;;;;23.24;94.83;99371.28;340977;28;1615;-77
2023/07/04 00:24:58;;;;;;;;;;;;;;;23.29;94.92;99373.50;339557;29;1226;-78
2023/07/04 00:25:09;;;;;;;;;;;;;;;23.33;94.48;99372.22;341900;28;2070;-77
2023/07/04 00:25:23;;;;;;;;;;;;;;;23.37;94.03;99369.09;340096;29;1714;-77
2023/07/04 00:25:33;;;;;;;;;;;;;;;23.41;93.98;99370.47;342004;28;1289;-77
2023/07/04 00:25:43;;;;;;;;;;;;;;;23.45;93.69;99369.16;341851;28;916;-77
2023/07/04 00:25:54;;;;;;;;;;;;;;;23.47;93.38;99367.19;343330;28;1203;-77
2023/07/04 00:26:06;;;;;;;;;;;;;;;23.51;93.15;99371.25;341794;28;1677;-77
2023/07/04 00:26:17;;;;;;;;;;;;;;;23.53;92.80;99368.44;339804;28;1968;-78
2023/07/04 00:26:29;;;;;;;;;;;;;;;23.58;92.62;99376.00;339683;29;1281;-77
2023/07/04 00:26:39;;;;;;;;;;;;;;;23.62;92.29;99372.06;333072;29;1342;-76
2023/07/04 00:26:49;;;;;;;;;;;;;;;23.65;92.14;99366.41;331836;29;2080;-79
2023/07/04 00:27:00;;;;;;;;;;;;;;;23.68;91.60;99366.09;330340;29;2185;-76
2023/07/04 00:27:14;;;;;;;;;;;;;;;23.69;91.86;99368.63;332987;29;1347;-76
2023/07/04 00:27:24;;;;;;;;;;;;;;;23.70;91.57;99364.13;333128;29;1174;-77
2023/07/04 00:27:34;;;;;;;;;;;;;;;23.73;91.54;99372.66;332854;29;1676;-76
2023/07/04 00:27:46;;;;;;;;;;;;;;;23.75;91.32;99367.19;332694;29;1463;-77
2023/07/04 00:27:56;;;;;;;;;;;;;;;23.76;91.39;99363.50;332926;29;999;-77
2023/07/04 00:28:06;;;;;;;;;;;;;;;23.78;90.84;99358.84;329894;29;1364;-76
2023/07/04 00:28:16;;;;;;;;;;;;;;;23.78;90.89;99357.03;327666;29;2127;-76
2023/07/04 00:28:27;;;;;;;;;;;;;;;23.80;90.57;99364.88;329326;30;725;-76
2023/07/04 00:28:38;;;;;;;;;;;;;;;23.81;90.72;99363.91;326874;29;3242;-76
2023/07/04 00:28:48;;;;;;;;;;;;;;;23.81;90.52;99367.41;326178;29;2930;-76
2023/07/04 00:28:59;;;;;;;;;;;;;;;23.84;90.29;99361.72;323205;30;1213;-76
2023/07/04 00:29:09;;;;;;;;;;;;;;;23.84;89.90;99364.41;318210;31;833;-77
2023/07/04 00:29:19;;;;;;;;;;;;;;;23.85;89.66;99363.41;313666;31;2872;-76
2023/07/04 00:29:29;;;;;;;;;;;;;;;23.85;89.58;99368.75;311806;31;2943;-77
2023/07/04 00:29:40;;;;;;;;;;;;;;;23.86;89.68;99364.25;314040;31;917;-77
2023/07/04 00:29:50;;;;;;;;;;;;;;;23.86;89.58;99370.44;317266;31;2661;-77
2023/07/04 00:30:04;;;;;;;;;;;;;;;23.86;89.44;99359.75;315554;31;1697;-77
2023/07/04 00:30:14;;;;;;;;;;;;;;;23.87;89.36;99365.94;314224;31;2842;-77
2023/07/04 00:30:25;;;;;;;;;;;;;;;23.87;89.19;99369.44;316222;31;1142;-77
2023/07/04 00:30:35;;;;;;;;;;;;;;;23.88;89.16;99363.09;315337;31;3373;-77
2023/07/04 00:30:46;;;;;;;;;;;;;;;23.89;89.33;99363.94;312814;31;3878;-77
2023/07/04 00:30:56;;;;;;;;;;;;;;;23.90;89.37;99373.66;313766;31;1193;-78
2023/07/04 00:31:07;;;;;;;;;;;;;;;23.90;89.08;99365.63;309611;31;4215;-77
2023/07/04 00:31:18;;;;;;;;;;;;;;;23.91;89.13;99364.63;307997;31;4920;-77
2023/07/04 00:31:29;;;;;;;;;;;;;;;23.93;88.94;99364.47;308607;31;1311;-76
2023/07/04 00:31:40;;;;;;;;;;;;;;;23.93;88.81;99368.00;307503;32;1270;-78
2023/07/04 00:31:50;;;;;;;;;;;;;;;23.94;88.82;99369.66;306551;31;3768;-77
2023/07/04 00:32:02;;;;;;;;;;;;;;;23.94;88.83;99367.00;305312;32;3122;-77
2023/07/04 00:32:15;;;;;;;;;;;;;;;23.94;89.10;99364.31;305295;32;906;-77
2023/07/04 00:32:25;;;;;;;;;;;;;;;23.93;89.46;99365.31;302313;32;1465;-77
2023/07/04 00:32:36;;;;;;;;;;;;;;;23.91;89.29;99367.31;297690;32;4120;-77
2023/07/04 00:32:46;;;;;;;;;;;;;;;23.92;89.27;99368.16;295309;32;5424;-77
2023/07/04 00:32:56;;;;;;;;;;;;;;;23.92;89.25;99365.47;297099;33;1447;-78
2023/07/04 00:33:06;;;;;;;;;;;;;;;23.93;89.42;99367.16;295721;33;5343;-78
2023/07/04 00:33:16;;;;;;;;;;;;;;;23.91;88.99;99369.97;293301;33;5658;-77
2023/07/04 00:33:30;;;;;;;;;;;;;;;23.93;89.19;99369.81;294122;33;1188;-77
2023/07/04 00:33:40;;;;;;;;;;;;;;;23.92;89.33;99371.66;290176;34;795;-77
2023/07/04 00:33:51;;;;;;;;;;;;;;;23.93;89.11;99370.66;287245;34;5955;-77
2023/07/04 00:34:01;;;;;;;;;;;;;;;23.92;89.40;99363.63;287386;33;6278;-77
2023/07/04 00:34:12;;;;;;;;;;;;;;;23.92;89.42;99368.16;288306;34;875;-77
2023/07/04 00:34:22;;;;;;;;;;;;;;;23.92;89.29;99370.81;284404;34;6184;-77
2023/07/04 00:34:33;;;;;;;;;;;;;;;23.90;89.36;99365.63;282082;34;5726;-78
2023/07/04 00:36:21;;;;;;;;;;;;;;;23.91;89.39;99367.31;2502593;27;20527;-76
2023/07/04 00:36:34;;;;;;;;;;;;;;;23.91;89.21;99367.31;357630;27;890;-76
2023/07/04 00:36:45;;;;;;;;;;;;;;;23.92;89.53;99368.97;356063;27;838;-76
2023/07/04 00:36:59;;;;;;;;;;;;;;;23.91;89.45;99361.97;354664;27;873;-76
2023/07/04 00:37:09;;;;;;;;;;;;;;;23.92;89.18;99365.47;351922;28;1250;-76
2023/07/04 00:37:21;;;;;;;;;;;;;;;23.92;89.29;99366.31;350293;28;1285;-76
2023/07/04 00:37:31;;;;;;;;;;;;;;;23.92;89.42;99363.63;350305;28;1243;-76
2023/07/04 00:37:43;;;;;;;;;;;;;;;23.93;89.48;99365.31;350213;28;1166;-76
2023/07/04 00:37:55;;;;;;;;;;;;;;;23.93;89.29;99365.31;349975;28;1370;-76
2023/07/04 00:38:06;;;;;;;;;;;;;;;23.93;89.76;99364.47;347452;28;1285;-76
2023/07/04 00:38:19;;;;;;;;;;;;;;;23.91;89.20;99367.31;346844;28;1219;-76
2023/07/04 00:38:32;;;;;;;;;;;;;;;23.92;89.44;99362.78;348688;28;1354;-77
2023/07/04 00:38:43;;;;;;;;;;;;;;;23.92;89.15;99366.31;348842;28;1356;-76
2023/07/04 00:38:56;;;;;;;;;;;;;;;23.92;89.66;99368.97;347532;28;1318;-76
2023/07/04 00:39:07;;;;;;;;;;;;;;;23.91;89.70;99367.31;344784;28;1301;-76
2023/07/04 00:39:18;;;;;;;;;;;;;;;23.90;89.28;99368.28;344778;28;916;-76
2023/07/04 00:39:28;;;;;;;;;;;;;;;23.91;89.52;99369.97;347069;28;1419;-76
2023/07/04 00:39:40;;;;;;;;;;;;;;;23.91;89.84;99369.97;346665;28;867;-76
2023/07/04 00:39:50;;;;;;;;;;;;;;;23.91;89.74;99369.97;348845;28;1270;-77
2023/07/04 00:40:06;;;;;;;;;;;;;;;23.90;89.43;99370.97;348795;28;1243;-77
2023/07/04 00:40:16;;;;;;;;;;;;;;;23.88;90.12;99368.44;348733;28;984;-76
2023/07/04 00:40:27;;;;;;;;;;;;;;;23.89;90.11;99374.63;350103;28;817;-76
2023/07/04 00:40:37;;;;;;;;;;;;;;;23.87;90.02;99373.94;351620;28;811;-76
2023/07/04 00:40:50;;;;;;;;;;;;;;;23.84;90.04;99371.56;352626;28;874;-76
2023/07/04 00:41:01;;;;;;;;;;;;;;;23.83;90.16;99368.06;351060;28;871;-76
2023/07/04 00:41:13;;;;;;;;;;;;;;;23.80;89.96;99376.41;351568;28;1308;-75
2023/07/04 00:41:24;;;;;;;;;;;;;;;23.78;89.96;99373.06;348948;28;1414;-75
2023/07/04 00:41:36;;;;;;;;;;;;;;;23.77;90.01;99376.72;347625;28;891;-75
2023/07/04 00:41:47;;;;;;;;;;;;;;;23.77;89.99;99368.72;350251;28;1455;-76
2023/07/04 00:42:00;;;;;;;;;;;;;;;23.77;90.18;99371.38;351466;28;1359;-76
2023/07/04 00:42:10;;;;;;;;;;;;;;;23.77;89.82;99376.72;350268;28;1218;-76
2023/07/04 00:42:21;;;;;;;;;;;;;;;23.78;90.05;99373.06;352407;28;1047;-76
2023/07/04 00:42:34;;;;;;;;;;;;;;;23.79;89.64;99373.91;348579;28;1254;-75
2023/07/04 00:42:45;;;;;;;;;;;;;;;23.80;89.89;99375.56;344027;28;1336;-75
2023/07/04 00:43:02;;;;;;;;;;;;;;;23.80;89.79;99365.72;342102;28;1247;-76
2023/07/04 00:43:13;;;;;;;;;;;;;;;23.82;89.51;99363.75;350516;28;819;-76
2023/07/04 00:43:24;;;;;;;;;;;;;;;23.83;89.40;99367.22;350316;28;1214;-76
2023/07/04 00:44:13;;;;;;;;;;;;;;;23.83;89.14;99365.38;350417;28;824;-76
2023/07/04 00:44:24;;;;;;;;;;;;;;;23.87;88.73;99369.44;340776;29;1254;-76
2023/07/04 00:44:37;;;;;;;;;;;;;;;23.87;88.56;99371.28;339721;28;1393;-76
2023/07/04 00:44:55;;;;;;;;;;;;;;;23.87;88.75;99374.78;338411;29;1147;-77
2023/07/04 00:45:10;;;;;;;;;;;;;;;23.87;88.67;99374.78;335619;29;1506;-77
2023/07/04 00:45:20;;;;;;;;;;;;;;;23.88;88.38;99372.94;332994;29;1350;-77
2023/07/04 00:45:37;;;;;;;;;;;;;;;23.88;88.29;99368.44;333036;29;1339;-77
2023/07/04 00:45:55;;;;;;;;;;;;;;;23.87;88.30;99364.09;335626;29;869;-77
2023/07/04 00:46:07;;;;;;;;;;;;;;;23.88;88.19;99367.59;334311;29;1375;-77
2023/07/04 00:46:26;;;;;;;;;;;;;;;23.89;88.39;99369.28;331818;29;1352;-76
2023/07/04 00:46:37;;;;;;;;;;;;;;;23.90;88.51;99373.66;328166;30;839;-77
2023/07/04 00:46:53;;;;;;;;;;;;;;;23.89;88.34;99366.63;327745;30;1581;-77
2023/07/04 00:47:10;;;;;;;;;;;;;;;23.87;88.41;99366.78;327765;30;1394;-77
2023/07/04 00:47:42;;;;;;;;;;;;;;;23.87;88.85;99366.78;320788;30;1375;-77
2023/07/04 00:47:56;;;;;;;;;;;;;;;23.86;88.80;99369.59;320936;30;1313;-78
2023/07/04 00:48:08;;;;;;;;;;;;;;;23.87;88.86;99371.28;319815;30;1312;-77
2023/07/04 00:48:18;;;;;;;;;;;;;;;23.86;88.82;99370.44;317053;31;1528;-77
2023/07/04 00:48:28;;;;;;;;;;;;;;;23.86;88.91;99370.44;315026;31;1980;-77
2023/07/04 00:48:40;;;;;;;;;;;;;;;23.85;88.78;99374.09;316341;31;865;-77
2023/07/04 00:48:51;;;;;;;;;;;;;;;23.86;88.67;99372.25;317377;31;841;-77
2023/07/04 00:49:01;;;;;;;;;;;;;;;23.85;88.65;99370.59;315655;31;2340;-77
2023/07/04 00:49:22;;;;;;;;;;;;;;;23.85;89.30;99370.59;313285;31;2070;-77
2023/07/04 00:49:38;;;;;;;;;;;;;;;23.85;88.84;99373.25;313002;31;2402;-77
2023/07/04 00:49:49;;;;;;;;;;;;;;;23.85;88.98;99370.59;314032;31;2090;-77
2023/07/04 00:50:06;;;;;;;;;;;;;;;23.85;88.76;99367.91;313289;31;1335;-77
2023/07/04 00:50:19;;;;;;;;;;;;;;;23.85;88.85;99367.91;314718;31;1880;-77
2023/07/04 00:50:33;;;;;;;;;;;;;;;23.86;88.62;99366.91;315413;31;2254;-78
2023/07/04 00:50:45;;;;;;;;;;;;;;;23.86;88.80;99375.78;314579;31;2807;-77
2023/07/04 00:51:04;;;;;;;;;;;;;;;23.87;88.69;99376.63;312822;31;1246;-76
2023/07/04 00:51:21;;;;;;;;;;;;;;;23.86;88.90;99374.94;310156;31;3081;-76
2023/07/04 00:51:32;;;;;;;;;;;;;;;23.86;88.59;99370.44;311121;31;2558;-76
2023/07/04 00:51:45;;;;;;;;;;;;;;;23.87;88.89;99373.94;310886;31;3217;-76
2023/07/04 00:51:58;;;;;;;;;;;;;;;23.87;88.98;99374.78;308913;31;1470;-76
2023/07/04 00:52:12;;;;;;;;;;;;;;;23.87;88.76;99376.63;305451;32;839;-76
2023/07/04 00:52:24;;;;;;;;;;;;;;;23.86;88.79;99370.44;304260;32;1377;-76
2023/07/04 00:52:35;;;;;;;;;;;;;;;23.87;89.01;99371.28;305569;31;2668;-76
2023/07/04 00:52:45;;;;;;;;;;;;;;;23.87;88.65;99373.94;305837;32;3170;-76
2023/07/04 00:52:56;;;;;;;;;;;;;;;23.87;88.56;99377.47;302209;32;3973;-76
2023/07/04 00:53:07;;;;;;;;;;;;;;;23.88;88.74;99378.31;301135;32;885;-77
2023/07/04 00:53:17;;;;;;;;;;;;;;;23.89;88.77;99379.97;297739;33;4806;-77
2023/07/04 00:53:29;;;;;;;;;;;;;;;23.87;88.94;99371.28;297225;32;4655;-77
2023/07/04 00:53:39;;;;;;;;;;;;;;;23.86;88.52;99375.78;295988;33;1534;-77
2023/07/04 00:53:50;;;;;;;;;;;;;;;23.85;88.85;99375.94;293477;33;4144;-77
2023/07/04 00:54:00;;;;;;;;;;;;;;;23.84;89.17;99372.41;293116;33;3955;-76
2023/07/04 00:54:10;;;;;;;;;;;;;;;23.84;88.81;99372.41;292438;33;3766;-75
2023/07/04 00:54:23;;;;;;;;;;;;;;;23.84;89.29;99374.25;294071;33;1335;-75
2023/07/04 00:54:36;;;;;;;;;;;;;;;23.85;89.26;99373.25;293863;33;2923;-75
2023/07/04 00:54:52;;;;;;;;;;;;;;;23.85;88.85;99373.25;292383;33;3709;-75
2023/07/04 00:55:07;;;;;;;;;;;;;;;23.84;89.10;99374.25;289647;33;4514;-75
2023/07/04 00:55:18;;;;;;;;;;;;;;;23.83;89.02;99383.25;287359;34;5408;-75
2023/07/04 00:55:28;;;;;;;;;;;;;;;23.83;89.31;99372.56;285186;34;7247;-75
2023/07/04 00:55:40;;;;;;;;;;;;;;;23.82;89.03;99376.28;285478;34;853;-75
2023/07/04 00:55:50;;;;;;;;;;;;;;;23.82;89.06;99376.28;285886;34;6796;-76
2023/07/04 00:56:00;;;;;;;;;;;;;;;23.81;89.26;99382.59;284768;34;5184;-75
2023/07/04 00:56:10;;;;;;;;;;;;;;;23.81;89.23;99367.41;285443;34;1224;-75
2023/07/04 00:56:24;;;;;;;;;;;;;;;23.80;89.48;99370.22;277468;35;1380;-75
2023/07/04 00:56:34;;;;;;;;;;;;;;;23.79;89.40;99374.75;276859;35;5592;-76
2023/07/04 00:56:45;;;;;;;;;;;;;;;23.80;89.42;99380.94;277481;35;3954;-76
2023/07/04 00:56:56;;;;;;;;;;;;;;;23.80;89.34;99380.94;278940;35;1119;-76
2023/07/04 00:57:07;;;;;;;;;;;;;;;23.80;89.62;99383.59;276526;35;1264;-77
2023/07/04 00:58:48;;;;;;;;;;;;;;;23.85;89.43;99373.25;2503102;27;19987;-76
2023/07/04 00:58:59;;;;;;;;;;;;;;;23.86;88.96;99377.63;354305;27;1284;-77
2023/07/04 00:59:09;;;;;;;;;;;;;;;23.85;89.13;99374.09;353060;28;881;-77
2023/07/04 00:59:21;;;;;;;;;;;;;;;23.86;89.08;99374.94;351703;28;1375;-77
2023/07/04 00:59:32;;;;;;;;;;;;;;;23.86;89.18;99382.97;348932;28;1252;-77
2023/07/04 00:59:46;;;;;;;;;;;;;;;23.86;89.26;99378.44;350418;28;748;-77
2023/07/04 00:59:58;;;;;;;;;;;;;;;23.84;88.89;99372.41;351604;28;1378;-77
2023/07/04 01:00:19;;;;;;;;;;;;;;;23.85;89.09;99373.25;350269;28;1436;-77
2023/07/04 01:00:30;;;;;;;;;;;;;;;23.85;89.21;99381.28;351620;28;1254;-77
2023/07/04 01:00:40;;;;;;;;;;;;;;;23.85;88.98;99381.28;352366;28;1232;-77
2023/07/04 01:00:50;;;;;;;;;;;;;;;23.84;89.01;99376.94;353489;28;859;-77
2023/07/04 01:01:01;;;;;;;;;;;;;;;23.86;88.97;99374.94;353184;28;1214;-76
2023/07/04 01:01:12;;;;;;;;;;;;;;;23.86;89.12;99369.59;353073;28;1005;-77
2023/07/04 01:01:23;;;;;;;;;;;;;;;23.85;89.09;99373.25;353168;28;866;-77
2023/07/04 01:01:34;;;;;;;;;;;;;;;23.86;89.37;99377.63;351901;28;1146;-77
2023/07/04 01:01:44;;;;;;;;;;;;;;;23.84;89.33;99382.28;351812;28;847;-77
2023/07/04 01:01:55;;;;;;;;;;;;;;;23.83;89.36;99385.94;350336;28;1005;-77
2023/07/04 01:02:05;;;;;;;;;;;;;;;23.81;89.30;99371.91;349552;28;1445;-77
2023/07/04 01:02:18;;;;;;;;;;;;;;;23.82;89.28;99381.63;350147;28;1192;-76
2023/07/04 01:02:32;;;;;;;;;;;;;;;23.82;89.42;99376.28;348849;28;903;-77
2023/07/04 01:02:45;;;;;;;;;;;;;;;23.81;89.36;99374.59;350168;28;1378;-77
2023/07/04 01:03:03;;;;;;;;;;;;;;;23.79;89.47;99374.75;345534;28;943;-77
2023/07/04 01:03:15;;;;;;;;;;;;;;;23.80;89.63;99365.72;346703;28;956;-77
2023/07/04 01:03:26;;;;;;;;;;;;;;;23.81;89.25;99377.25;347499;28;915;-77
2023/07/04 01:03:36;;;;;;;;;;;;;;;23.81;89.28;99377.25;348000;28;1209;-77
2023/07/04 01:03:46;;;;;;;;;;;;;;;23.80;89.32;99375.56;347462;28;1110;-76
2023/07/04 01:03:57;;;;;;;;;;;;;;;23.80;89.38;99375.56;346171;28;1300;-76
2023/07/04 01:04:07;;;;;;;;;;;;;;;23.80;89.52;99375.56;346088;28;1009;-76
2023/07/04 01:04:17;;;;;;;;;;;;;;;23.79;89.80;99381.91;346161;28;1187;-76
2023/07/04 01:04:29;;;;;;;;;;;;;;;23.78;89.75;99380.25;348277;28;971;-76
2023/07/04 01:04:39;;;;;;;;;;;;;;;23.78;89.62;99375.72;349104;28;1226;-76
2023/07/04 01:04:50;;;;;;;;;;;;;;;23.79;89.40;99373.91;347487;28;1230;-76
2023/07/04 01:05:00;;;;;;;;;;;;;;;23.79;89.64;99373.91;344557;28;1527;-76
2023/07/04 01:05:10;;;;;;;;;;;;;;;23.78;89.77;99372.22;346021;28;887;-76
2023/07/04 01:05:33;;;;;;;;;;;;;;;23.77;89.53;99370.53;345950;28;2643;-76
2023/07/04 01:05:52;;;;;;;;;;;;;;;23.77;89.96;99375.88;340855;28;1271;-77
2023/07/04 01:06:07;;;;;;;;;;;;;;;23.77;89.64;99381.22;342072;28;1379;-77
2023/07/04 01:06:21;;;;;;;;;;;;;;;23.78;89.39;99377.56;343739;28;1224;-77
2023/07/04 01:06:38;;;;;;;;;;;;;;;23.78;89.70;99372.22;343415;28;1360;-76
2023/07/04 01:06:49;;;;;;;;;;;;;;;23.79;89.50;99376.56;339513;29;1269;-76
2023/07/04 01:07:04;;;;;;;;;;;;;;;23.78;89.77;99380.25;341386;28;1486;-76
2023/07/04 01:07:16;;;;;;;;;;;;;;;23.78;89.82;99383.75;338611;29;1300;-77
2023/07/04 01:07:31;;;;;;;;;;;;;;;23.79;89.62;99384.59;337931;29;1234;-76
2023/07/04 01:07:45;;;;;;;;;;;;;;;23.78;89.89;99377.56;337883;29;1927;-76
2023/07/04 01:08:06;;;;;;;;;;;;;;;23.78;90.01;99377.56;338987;29;1390;-75
2023/07/04 01:08:23;;;;;;;;;;;;;;;23.76;89.92;99384.91;342117;28;892;-76
2023/07/04 01:08:36;;;;;;;;;;;;;;;23.74;89.93;99381.53;334285;29;1364;-77
2023/07/04 01:08:46;;;;;;;;;;;;;;;23.74;90.05;99377.03;338033;29;1317;-77